Time;durP1;ratioP1;P1;durP2;ratioP2;P2;SDS_P1;SDS_P2;PMS_P1;PMS_P2;Temp;Humidity;BMP_temperature;BMP_pressure;BME280_temperature;BME280_humidity;BME280_pressure;Samples;Min_cycle;Max_cycle;Signal;HPM_P1;HPM_P2
2023/10/15 00:01:05;;;;;;;6.65;4.03;;;;;;;;;;5044167;28;20076;-50
2023/10/15 00:03:33;;;;;;;10.20;6.53;;;;;;;;;;5048810;28;20069;-46
2023/10/15 00:06:01;;;;;;;11.30;8.60;;;;;;;;;;5049463;28;20336;-48
2023/10/15 00:08:28;;;;;;;13.55;8.93;;;;;;;;;;5043695;28;20420;-46
2023/10/15 00:10:55;;;;;;;14.23;8.63;;;;;;;;;;5043878;28;20021;-42
2023/10/15 00:13:23;;;;;;;10.85;6.78;;;;;;;;;;5048281;28;20204;-48
2023/10/15 00:15:51;;;;;;;9.57;6.07;;;;;;;;;;5058698;28;20040;-41
2023/10/15 00:18:17;;;;;;;6.28;5.10;;;;;;;;;;5063374;28;20025;-36
2023/10/15 00:20:47;;;;;;;7.40;4.50;;;;;;;;;;5056961;28;20033;-35
2023/10/15 00:23:13;;;;;;;6.10;4.68;;;;;;;;;;5046170;28;20044;-43
2023/10/15 00:25:47;;;;;;;5.85;4.32;;;;;;;;;;5043810;28;20021;-42
2023/10/15 00:28:17;;;;;;;7.05;3.92;;;;;;;;;;5043624;28;20025;-43
2023/10/15 00:30:44;;;;;;;5.50;3.83;;;;;;;;;;5043430;28;20029;-37
2023/10/15 00:33:16;;;;;;;5.15;3.28;;;;;;;;;;5054631;28;20166;-35
2023/10/15 00:35:44;;;;;;;5.85;3.25;;;;;;;;;;5044182;28;20100;-36
2023/10/15 00:38:16;;;;;;;6.40;3.17;;;;;;;;;;5043666;28;20060;-37
2023/10/15 00:40:45;;;;;;;4.00;3.13;;;;;;;;;;5044044;28;20080;-37
2023/10/15 00:43:13;;;;;;;6.90;3.50;;;;;;;;;;5043420;28;20288;-37
2023/10/15 00:45:44;;;;;;;5.82;3.50;;;;;;;;;;5047225;28;20041;-38
2023/10/15 00:48:13;;;;;;;5.28;3.10;;;;;;;;;;5055542;28;20083;-40
2023/10/15 00:50:47;;;;;;;5.47;2.90;;;;;;;;;;5063853;28;20025;-43
2023/10/15 00:53:24;;;;;;;6.18;2.78;;;;;;;;;;5062830;28;20021;-41
2023/10/15 00:55:59;;;;;;;8.68;2.63;;;;;;;;;;5063778;28;20297;-44
2023/10/15 00:58:32;;;;;;;5.07;2.53;;;;;;;;;;5063369;28;20025;-51
2023/10/15 01:01:26;;;;;;;6.90;2.65;;;;;;;;;;5050570;28;20037;-50
2023/10/15 01:03:53;;;;;;;3.65;2.50;;;;;;;;;;5043073;28;20041;-39
2023/10/15 01:06:48;;;;;;;4.75;2.38;;;;;;;;;;5044161;28;20033;-45
2023/10/15 01:09:09;;;;;;;3.28;2.42;;;;;;;;;;5047114;28;20030;-39
2023/10/15 01:11:38;;;;;;;5.65;2.95;;;;;;;;;;5046962;28;20052;-46
2023/10/15 01:14:10;;;;;;;4.82;2.55;;;;;;;;;;5046889;28;20021;-53
2023/10/15 01:16:37;;;;;;;6.75;2.33;;;;;;;;;;5047599;28;20033;-42
2023/10/15 01:21:52;;;;;;;3.92;2.40;;;;;;;;;;5054055;28;20052;-44
2023/10/15 01:24:19;;;;;;;4.90;2.73;;;;;;;;;;5046433;28;20037;-50
2023/10/15 01:26:59;;;;;;;6.43;2.88;;;;;;;;;;5046319;28;20045;-47
2023/10/15 01:29:27;;;;;;;4.47;2.60;;;;;;;;;;5056841;28;20096;-46
2023/10/15 01:32:06;;;;;;;4.38;2.38;;;;;;;;;;5048955;28;20017;-47
2023/10/15 01:34:45;;;;;;;5.97;2.70;;;;;;;;;;5055450;28;20029;-54
2023/10/15 01:37:21;;;;;;;6.75;3.08;;;;;;;;;;5046501;28;20332;-46
2023/10/15 01:39:51;;;;;;;6.88;2.63;;;;;;;;;;5046649;28;20044;-42
2023/10/15 01:45:13;;;;;;;5.40;2.60;;;;;;;;;;5046476;28;20033;-42
2023/10/15 01:48:05;;;;;;;5.70;2.88;;;;;;;;;;5051238;28;20076;-37
2023/10/15 01:50:32;;;;;;;7.90;2.67;;;;;;;;;;5048539;28;20042;-45
2023/10/15 01:53:04;;;;;;;7.18;2.97;;;;;;;;;;5050077;28;20304;-43
2023/10/15 01:55:36;;;;;;;6.97;2.88;;;;;;;;;;5046396;28;20105;-43
2023/10/15 01:58:04;;;;;;;6.05;3.08;;;;;;;;;;5045522;28;20085;-43
2023/10/15 02:03:01;;;;;;;7.68;3.15;;;;;;;;;;5045667;28;20033;-33
2023/10/15 02:05:46;;;;;;;5.88;3.38;;;;;;;;;;5046278;28;20084;-39
2023/10/15 02:08:23;;;;;;;7.97;3.45;;;;;;;;;;5045749;28;20217;-38
2023/10/15 02:10:52;;;;;;;7.57;3.85;;;;;;;;;;5043397;28;20186;-50
2023/10/15 02:13:22;;;;;;;7.93;2.95;;;;;;;;;;5043722;28;20045;-40
2023/10/15 02:15:58;;;;;;;8.80;3.15;;;;;;;;;;5045030;28;20030;-44
2023/10/15 02:18:29;;;;;;;6.20;2.88;;;;;;;;;;5045342;28;20040;-41
2023/10/15 02:23:22;;;;;;;4.45;2.80;;;;;;;;;;5045561;28;20021;-54
2023/10/15 02:25:58;;;;;;;4.45;2.92;;;;;;;;;;5045847;28;20017;-36
2023/10/15 02:28:26;;;;;;;4.93;3.10;;;;;;;;;;5045498;28;20217;-36
2023/10/15 02:33:32;;;;;;;8.55;3.42;;;;;;;;;;5045243;28;20075;-44
2023/10/15 02:35:59;;;;;;;7.10;3.78;;;;;;;;;;5045703;28;20041;-41
2023/10/15 02:38:37;;;;;;;8.07;3.88;;;;;;;;;;5044650;28;20229;-43
2023/10/15 02:43:31;;;;;;;6.72;3.85;;;;;;;;;;5044854;28;20025;-44
2023/10/15 02:46:11;;;;;;;7.82;3.63;;;;;;;;;;5045499;28;20064;-42
2023/10/15 02:48:41;;;;;;;6.65;3.83;;;;;;;;;;5045125;28;20045;-40
2023/10/15 02:51:08;;;;;;;9.10;4.20;;;;;;;;;;5045264;28;20034;-51
2023/10/15 02:53:39;;;;;;;7.05;3.55;;;;;;;;;;5044902;28;20026;-42
2023/10/15 02:56:12;;;;;;;6.90;4.18;;;;;;;;;;5045317;28;20193;-45
2023/10/15 02:58:39;;;;;;;6.78;3.88;;;;;;;;;;5044815;28;20096;-41
2023/10/15 03:01:20;;;;;;;8.55;4.10;;;;;;;;;;5045178;28;20037;-46
2023/10/15 03:03:50;;;;;;;7.13;4.03;;;;;;;;;;5044464;28;20286;-43
2023/10/15 03:06:31;;;;;;;8.30;4.28;;;;;;;;;;5044710;28;20079;-44
2023/10/15 03:08:59;;;;;;;6.93;4.35;;;;;;;;;;5044497;28;20025;-49
2023/10/15 03:11:31;;;;;;;7.95;4.20;;;;;;;;;;5044530;28;20313;-48
2023/10/15 03:14:00;;;;;;;6.75;3.38;;;;;;;;;;5044293;28;20314;-47
2023/10/15 03:16:32;;;;;;;5.75;3.58;;;;;;;;;;5044664;28;20061;-46
2023/10/15 03:19:09;;;;;;;;;;;;;;;;;;5044738;28;20076;-51
2023/10/15 03:21:39;;;;;;;5.28;2.95;;;;;;;;;;5044070;28;20105;-45
2023/10/15 03:24:06;;;;;;;4.25;3.00;;;;;;;;;;5044223;28;20068;-49
2023/10/15 03:26:34;;;;;;;4.03;2.80;;;;;;;;;;5044196;28;20049;-43
2023/10/15 03:29:13;;;;;;;8.38;3.38;;;;;;;;;;5043895;28;20028;-38
2023/10/15 03:31:46;;;;;;;7.50;3.42;;;;;;;;;;5044228;28;20055;-40
2023/10/15 03:34:14;;;;;;;5.50;3.00;;;;;;;;;;5044050;28;20256;-49
2023/10/15 03:44:44;;;;;;;;;;;;;;;;;;5044380;28;20044;-42
2023/10/15 03:47:11;;;;;;;6.25;3.40;;;;;;;;;;5043834;28;20082;-45
2023/10/15 03:49:38;;;;;;;8.43;3.80;;;;;;;;;;5044002;28;20159;-41
2023/10/15 03:52:09;;;;;;;6.80;4.03;;;;;;;;;;5043633;28;20017;-37
2023/10/15 03:54:37;;;;;;;9.25;3.92;;;;;;;;;;5043886;28;20033;-40
2023/10/15 03:57:06;;;;;;;8.60;3.80;;;;;;;;;;5043775;28;20037;-39
2023/10/15 03:59:43;;;;;;;5.32;3.72;;;;;;;;;;5043950;28;20205;-43
2023/10/15 04:02:22;;;;;;;8.98;4.40;;;;;;;;;;5042491;28;20381;-42
2023/10/15 04:05:08;;;;;;;8.02;4.10;;;;;;;;;;5042376;28;20091;-44
2023/10/15 04:08:18;;;;;;;8.57;4.32;;;;;;;;;;5043514;28;20056;-44
2023/10/15 04:10:33;;;;;;;6.50;3.92;;;;;;;;;;5044901;28;20068;-39
2023/10/15 04:12:59;;;;;;;;;;;;;;;;;;5044025;28;20028;-42
2023/10/15 04:15:26;;;;;;;5.82;3.63;;;;;;;;;;5043898;28;19920;-47
2023/10/15 04:17:53;;;;;;;8.13;3.50;;;;;;;;;;5043640;28;20057;-49
2023/10/15 04:20:40;;;;;;;6.45;3.67;;;;;;;;;;5042512;28;20221;-47
2023/10/15 04:23:11;;;;;;;7.53;3.47;;;;;;;;;;5043467;28;20091;-38
2023/10/15 04:25:38;;;;;;;6.45;3.63;;;;;;;;;;5043721;28;20034;-36
2023/10/15 04:28:12;;;;;;;7.45;3.70;;;;;;;;;;5043560;28;20045;-38
2023/10/15 04:30:39;;;;;;;7.72;3.72;;;;;;;;;;5043514;28;20022;-36
2023/10/15 04:33:17;;;;;;;11.57;4.82;;;;;;;;;;5043348;28;20035;-44
2023/10/15 04:35:44;;;;;;;8.63;4.65;;;;;;;;;;5043884;28;20033;-36
2023/10/15 04:38:28;;;;;;;7.78;3.90;;;;;;;;;;5043484;28;20061;-36
2023/10/15 04:43:25;;;;;;;6.93;3.45;;;;;;;;;;5047346;28;20034;-35
2023/10/15 04:45:56;;;;;;;7.68;3.55;;;;;;;;;;5047604;28;20017;-35
2023/10/15 04:48:41;;;;;;;5.97;3.20;;;;;;;;;;5047410;28;20036;-35
2023/10/15 04:51:13;;;;;;;8.38;3.60;;;;;;;;;;5047599;28;20037;-41
2023/10/15 04:53:49;;;;;;;8.48;3.60;;;;;;;;;;5047175;28;20048;-36
2023/10/15 04:56:17;;;;;;;9.40;4.03;;;;;;;;;;5047006;28;20037;-36
2023/10/15 04:58:43;;;;;;;8.88;3.63;;;;;;;;;;5047133;28;20063;-47
2023/10/15 05:01:10;;;;;;;6.60;3.40;;;;;;;;;;5047526;28;20099;-40
2023/10/15 05:03:38;;;;;;;8.90;3.10;;;;;;;;;;5046716;28;20360;-40
2023/10/15 05:06:06;;;;;;;10.95;3.60;;;;;;;;;;5047438;28;20100;-56
2023/10/15 05:08:35;;;;;;;11.43;3.30;;;;;;;;;;5046908;28;20029;-45
2023/10/15 05:11:01;;;;;;;8.30;3.55;;;;;;;;;;5047203;28;20032;-43
2023/10/15 05:13:28;;;;;;;8.38;3.60;;;;;;;;;;5046917;28;20033;-42
2023/10/15 05:15:56;;;;;;;11.27;3.25;;;;;;;;;;5047268;28;20335;-42
2023/10/15 05:18:23;;;;;;;6.63;3.33;;;;;;;;;;5046694;28;20063;-43
2023/10/15 05:20:50;;;;;;;7.75;3.38;;;;;;;;;;5047170;28;20100;-41
2023/10/15 05:23:18;;;;;;;12.82;3.45;;;;;;;;;;5046601;28;20033;-40
2023/10/15 05:25:45;;;;;;;9.73;3.20;;;;;;;;;;5046971;28;20017;-45
2023/10/15 05:28:14;;;;;;;5.65;3.00;;;;;;;;;;5047024;28;20021;-34
2023/10/15 05:30:41;;;;;;;8.48;3.47;;;;;;;;;;5046950;28;20036;-33
2023/10/15 05:33:08;;;;;;;9.02;2.80;;;;;;;;;;5046349;28;20025;-34
2023/10/15 05:35:37;;;;;;;7.72;2.78;;;;;;;;;;5046905;28;20033;-36
2023/10/15 05:38:08;;;;;;;6.95;3.10;;;;;;;;;;5046385;28;20033;-35
2023/10/15 05:40:35;;;;;;;7.35;3.25;;;;;;;;;;5046583;28;20072;-34
2023/10/15 05:43:02;;;;;;;7.13;3.13;;;;;;;;;;5046313;28;20029;-41
2023/10/15 05:45:29;;;;;;;6.38;3.20;;;;;;;;;;5046660;28;20033;-36
2023/10/15 05:47:55;;;;;;;6.70;3.30;;;;;;;;;;5046419;28;20023;-40
2023/10/15 05:50:23;;;;;;;9.23;3.35;;;;;;;;;;5046567;28;20032;-36
2023/10/15 05:52:50;;;;;;;7.40;3.05;;;;;;;;;;5045894;28;20025;-45
2023/10/15 05:55:18;;;;;;;8.18;3.40;;;;;;;;;;5046400;28;20017;-40
2023/10/15 05:57:44;;;;;;;6.30;3.20;;;;;;;;;;5046140;28;20045;-46
2023/10/15 06:00:26;;;;;;;6.53;3.42;;;;;;;;;;5046469;28;20042;-44
2023/10/15 06:02:56;;;;;;;6.65;3.47;;;;;;;;;;5046016;28;20260;-42
2023/10/15 06:05:23;;;;;;;10.88;3.70;;;;;;;;;;5046321;28;20034;-44
2023/10/15 06:07:50;;;;;;;6.40;3.10;;;;;;;;;;5045838;28;20017;-39
2023/10/15 06:10:17;;;;;;;7.78;3.10;;;;;;;;;;5046209;28;20089;-41
2023/10/15 06:12:43;;;;;;;5.40;3.25;;;;;;;;;;5045836;28;20032;-39
2023/10/15 06:15:14;;;;;;;8.82;3.30;;;;;;;;;;5045885;28;20026;-40
2023/10/15 06:17:42;;;;;;;8.38;3.28;;;;;;;;;;5045794;28;20028;-41
2023/10/15 06:20:15;;;;;;;7.28;3.28;;;;;;;;;;5045945;28;20064;-34
2023/10/15 06:22:45;;;;;;;8.63;2.70;;;;;;;;;;5045554;28;20080;-41
2023/10/15 06:25:12;;;;;;;5.85;3.10;;;;;;;;;;5045841;28;20038;-43
2023/10/15 06:27:40;;;;;;;8.80;3.30;;;;;;;;;;5045539;28;20017;-41
2023/10/15 06:30:14;;;;;;;5.97;2.97;;;;;;;;;;5045739;28;20056;-41
2023/10/15 06:32:44;;;;;;;6.18;3.08;;;;;;;;;;5045495;28;20030;-43
2023/10/15 06:35:18;;;;;;;4.43;2.95;;;;;;;;;;5045515;28;20064;-42
2023/10/15 06:37:45;;;;;;;5.05;3.15;;;;;;;;;;5045316;28;20237;-44
2023/10/15 06:40:13;;;;;;;7.30;3.30;;;;;;;;;;5045671;28;20022;-41
2023/10/15 06:42:40;;;;;;;6.07;3.35;;;;;;;;;;5045084;28;20089;-41
2023/10/15 06:45:07;;;;;;;5.10;2.90;;;;;;;;;;5045451;28;20029;-44
2023/10/15 06:47:37;;;;;;;5.47;3.05;;;;;;;;;;5045214;28;20314;-44
2023/10/15 06:50:06;;;;;;;6.28;3.10;;;;;;;;;;5045202;28;20044;-38
2023/10/15 06:52:38;;;;;;;8.85;3.58;;;;;;;;;;5045006;28;20239;-40
2023/10/15 06:55:05;;;;;;;7.60;3.47;;;;;;;;;;5045218;28;20218;-44
2023/10/15 06:57:32;;;;;;;6.75;3.67;;;;;;;;;;5044965;28;20199;-40
2023/10/15 06:59:59;;;;;;;6.63;3.30;;;;;;;;;;5045122;28;20076;-37
2023/10/15 07:02:28;;;;;;;6.72;3.35;;;;;;;;;;5044690;28;20096;-41
2023/10/15 07:05:00;;;;;;;7.88;3.05;;;;;;;;;;5044098;28;20101;-44
2023/10/15 07:07:27;;;;;;;5.00;3.30;;;;;;;;;;5044782;28;20017;-43
2023/10/15 07:09:54;;;;;;;4.97;3.10;;;;;;;;;;5044411;28;20033;-40
2023/10/15 07:12:22;;;;;;;10.85;3.40;;;;;;;;;;5044298;28;20017;-48
2023/10/15 07:14:48;;;;;;;9.30;3.30;;;;;;;;;;5052438;28;20056;-43
2023/10/15 07:17:17;;;;;;;9.48;3.30;;;;;;;;;;5053246;28;20033;-44
2023/10/15 07:19:49;;;;;;;7.10;3.50;;;;;;;;;;5044557;28;20036;-41
2023/10/15 07:22:16;;;;;;;7.35;3.42;;;;;;;;;;5044591;28;20075;-43
2023/10/15 07:24:42;;;;;;;7.00;3.00;;;;;;;;;;5044328;28;20041;-44
2023/10/15 07:27:09;;;;;;;4.90;3.03;;;;;;;;;;5044340;28;20019;-44
2023/10/15 07:29:36;;;;;;;5.10;2.92;;;;;;;;;;5044547;28;20325;-42
2023/10/15 07:32:03;;;;;;;5.85;3.33;;;;;;;;;;5044163;28;20029;-46
2023/10/15 07:34:30;;;;;;;5.95;3.35;;;;;;;;;;5044373;28;20036;-37
2023/10/15 07:36:57;;;;;;;11.52;3.20;;;;;;;;;;5044350;28;20080;-44
2023/10/15 07:39:24;;;;;;;7.72;2.75;;;;;;;;;;5044130;28;20056;-43
2023/10/15 07:41:51;;;;;;;8.07;3.00;;;;;;;;;;5044138;28;20018;-40
2023/10/15 07:44:18;;;;;;;7.20;2.95;;;;;;;;;;5044127;28;20072;-45
2023/10/15 07:46:46;;;;;;;8.52;3.28;;;;;;;;;;5043924;28;20088;-41
2023/10/15 07:49:14;;;;;;;5.88;3.60;;;;;;;;;;5044108;28;20025;-42
2023/10/15 07:51:40;;;;;;;7.40;3.05;;;;;;;;;;5044393;28;20044;-43
2023/10/15 07:54:07;;;;;;;6.68;3.28;;;;;;;;;;5043775;28;20033;-41
2023/10/15 07:56:34;;;;;;;5.70;2.90;;;;;;;;;;5043922;28;20021;-42
2023/10/15 07:59:04;;;;;;;8.15;3.03;;;;;;;;;;5043985;28;20017;-44
2023/10/15 08:01:31;;;;;;;8.05;3.00;;;;;;;;;;5043768;28;20039;-42
2023/10/15 08:04:00;;;;;;;9.98;3.10;;;;;;;;;;5043606;28;20037;-42
2023/10/15 08:06:27;;;;;;;6.95;3.00;;;;;;;;;;5043971;28;20025;-45
2023/10/15 08:08:54;;;;;;;8.80;3.28;;;;;;;;;;5043619;28;20041;-42
2023/10/15 08:11:20;;;;;;;3.92;3.10;;;;;;;;;;5043874;28;20206;-42
2023/10/15 08:13:47;;;;;;;7.13;3.13;;;;;;;;;;5043723;28;20026;-44
2023/10/15 08:16:15;;;;;;;6.60;2.97;;;;;;;;;;5043298;28;20037;-43
2023/10/15 08:18:42;;;;;;;5.63;3.20;;;;;;;;;;5043695;28;20022;-45
2023/10/15 08:21:11;;;;;;;5.95;2.90;;;;;;;;;;5044206;28;20032;-43
2023/10/15 08:23:41;;;;;;;6.22;3.00;;;;;;;;;;5043437;28;20207;-42
2023/10/15 08:26:08;;;;;;;7.50;3.00;;;;;;;;;;5044108;28;20021;-41
2023/10/15 08:28:34;;;;;;;6.32;3.13;;;;;;;;;;5043657;28;20025;-45
2023/10/15 08:31:08;;;;;;;7.97;3.15;;;;;;;;;;5043970;28;20205;-41
2023/10/15 08:33:35;;;;;;;7.18;3.17;;;;;;;;;;5043623;28;20017;-40
2023/10/15 08:36:02;;;;;;;6.60;2.85;;;;;;;;;;5044073;28;20353;-46
2023/10/15 08:38:29;;;;;;;8.02;2.80;;;;;;;;;;5043384;28;20291;-43
2023/10/15 08:41:01;;;;;;;8.77;3.58;;;;;;;;;;5043969;28;20056;-41
2023/10/15 08:43:35;;;;;;;8.48;3.20;;;;;;;;;;5043462;28;20040;-44
2023/10/15 08:46:09;;;;;;;8.38;3.35;;;;;;;;;;5043965;28;20034;-41
2023/10/15 08:48:42;;;;;;;7.90;3.47;;;;;;;;;;5043467;28;20013;-41
2023/10/15 08:51:09;;;;;;;7.32;3.00;;;;;;;;;;5043822;28;20029;-42
2023/10/15 08:53:37;;;;;;;8.35;3.10;;;;;;;;;;5043349;28;20014;-42
2023/10/15 08:56:04;;;;;;;5.57;2.92;;;;;;;;;;5043941;28;20249;-39
2023/10/15 08:58:31;;;;;;;7.53;3.22;;;;;;;;;;5043251;28;20029;-40
2023/10/15 09:01:00;;;;;;;7.38;3.22;;;;;;;;;;5043716;28;20029;-40
2023/10/15 09:03:27;;;;;;;8.00;3.13;;;;;;;;;;5043120;28;20326;-40
2023/10/15 09:05:53;;;;;;;6.45;3.30;;;;;;;;;;5043683;28;20040;-47
2023/10/15 09:08:22;;;;;;;6.95;3.00;;;;;;;;;;5043323;28;20014;-42
2023/10/15 09:10:52;;;;;;;9.90;3.30;;;;;;;;;;5043716;28;20048;-40
2023/10/15 09:13:21;;;;;;;8.45;3.25;;;;;;;;;;5043216;28;20053;-42
2023/10/15 09:15:49;;;;;;;5.82;3.00;;;;;;;;;;5053817;28;20248;-44
2023/10/15 09:18:16;;;;;;;5.50;3.30;;;;;;;;;;5056303;28;20025;-36
2023/10/15 09:20:50;;;;;;;9.88;3.03;;;;;;;;;;5043524;28;20394;-36
2023/10/15 09:23:21;;;;;;;8.45;2.95;;;;;;;;;;5052385;28;20111;-38
2023/10/15 09:25:48;;;;;;;8.63;2.80;;;;;;;;;;5063265;28;20029;-45
2023/10/15 09:28:16;;;;;;;5.82;3.33;;;;;;;;;;5065379;28;20025;-42
2023/10/15 09:30:46;;;;;;;7.10;3.20;;;;;;;;;;5067087;28;20032;-43
2023/10/15 09:33:17;;;;;;;7.60;2.95;;;;;;;;;;5066407;28;20028;-43
2023/10/15 09:35:44;;;;;;;7.53;3.38;;;;;;;;;;5066964;28;20029;-44
2023/10/15 09:38:14;;;;;;;8.15;3.17;;;;;;;;;;5066424;28;20048;-44
2023/10/15 09:40:44;;;;;;;7.93;3.05;;;;;;;;;;5066818;28;20030;-43
2023/10/15 09:43:12;;;;;;;7.53;3.53;;;;;;;;;;5066289;28;20031;-41
2023/10/15 09:45:41;;;;;;;4.47;2.95;;;;;;;;;;5066520;28;20071;-41
2023/10/15 09:48:11;;;;;;;9.63;3.10;;;;;;;;;;5051359;28;20057;-43
2023/10/15 09:50:41;;;;;;;6.82;3.30;;;;;;;;;;5046660;28;20032;-42
2023/10/15 09:53:12;;;;;;;7.78;3.20;;;;;;;;;;5046111;28;20030;-40
2023/10/15 09:55:42;;;;;;;7.20;2.97;;;;;;;;;;5046550;28;20072;-43
2023/10/15 09:58:12;;;;;;;4.60;2.80;;;;;;;;;;5046188;28;20379;-43
2023/10/15 10:00:59;;;;;;;7.05;3.28;;;;;;;;;;5046433;28;20041;-43
2023/10/15 10:03:26;;;;;;;3.97;2.78;;;;;;;;;;5046048;28;20261;-42
2023/10/15 10:06:12;;;;;;;5.45;3.00;;;;;;;;;;5046474;28;20057;-43
2023/10/15 10:08:48;;;;;;;6.25;3.13;;;;;;;;;;5045949;28;20025;-42
2023/10/15 10:11:27;;;;;;;7.93;3.38;;;;;;;;;;5045905;28;20101;-41
2023/10/15 10:14:04;;;;;;;5.13;3.25;;;;;;;;;;5045787;28;20030;-41
2023/10/15 10:16:31;;;;;;;6.60;3.10;;;;;;;;;;5045799;28;20021;-45
2023/10/15 10:18:57;;;;;;;6.13;3.33;;;;;;;;;;5045809;28;20033;-45
2023/10/15 10:21:32;;;;;;;7.90;3.20;;;;;;;;;;5045596;28;20278;-41
2023/10/15 10:23:59;;;;;;;7.65;3.55;;;;;;;;;;5045497;28;20036;-42
2023/10/15 10:26:30;;;;;;;8.85;3.72;;;;;;;;;;5045612;28;20030;-44
2023/10/15 10:28:59;;;;;;;8.82;3.35;;;;;;;;;;5045226;28;20059;-41
2023/10/15 10:31:30;;;;;;;8.25;3.70;;;;;;;;;;5045514;28;20310;-40
2023/10/15 10:34:01;;;;;;;6.53;3.67;;;;;;;;;;5045394;28;20318;-43
2023/10/15 10:36:30;;;;;;;8.50;3.70;;;;;;;;;;5045522;28;20030;-43
2023/10/15 10:39:15;;;;;;;9.82;3.85;;;;;;;;;;5045452;28;20194;-43
2023/10/15 10:41:44;;;;;;;4.75;3.50;;;;;;;;;;5045730;28;20025;-42
2023/10/15 10:44:13;;;;;;;5.55;3.63;;;;;;;;;;5045242;28;20337;-42
2023/10/15 10:46:41;;;;;;;6.95;3.83;;;;;;;;;;5044957;28;20017;-43
2023/10/15 10:49:18;;;;;;;5.90;3.63;;;;;;;;;;5045323;28;20175;-42
2023/10/15 10:52:03;;;;;;;5.75;3.60;;;;;;;;;;5045143;28;20029;-44
2023/10/15 10:54:30;;;;;;;8.98;3.95;;;;;;;;;;5045277;28;20033;-44
2023/10/15 10:57:02;;;;;;;6.28;3.95;;;;;;;;;;5045290;28;20040;-44
2023/10/15 10:59:30;;;;;;;11.38;4.28;;;;;;;;;;5045047;28;20030;-44
2023/10/15 11:01:57;;;;;;;8.23;4.20;;;;;;;;;;5045326;28;20033;-47
2023/10/15 11:04:25;;;;;;;8.57;4.00;;;;;;;;;;5044772;28;20078;-41
2023/10/15 11:06:56;;;;;;;7.70;3.75;;;;;;;;;;5044800;28;20060;-42
2023/10/15 11:09:23;;;;;;;10.68;4.07;;;;;;;;;;5044805;28;20026;-44
2023/10/15 11:11:51;;;;;;;5.97;3.88;;;;;;;;;;5045374;28;20318;-46
2023/10/15 11:14:21;;;;;;;8.20;3.80;;;;;;;;;;5045318;28;20033;-45
2023/10/15 11:16:47;;;;;;;6.40;3.90;;;;;;;;;;5044934;28;20029;-45
2023/10/15 11:19:18;;;;;;;9.50;4.63;;;;;;;;;;5044616;28;20033;-38
2023/10/15 11:21:45;;;;;;;6.43;3.83;;;;;;;;;;5044505;28;20024;-42
2023/10/15 11:24:13;;;;;;;6.78;4.22;;;;;;;;;;5044762;28;20033;-39
2023/10/15 11:26:46;;;;;;;6.40;3.95;;;;;;;;;;5044347;28;20029;-38
2023/10/15 11:29:14;;;;;;;7.43;4.38;;;;;;;;;;5044492;28;20053;-49
2023/10/15 11:31:44;;;;;;;6.97;3.95;;;;;;;;;;5044378;28;20036;-52
2023/10/15 11:34:14;;;;;;;5.43;4.40;;;;;;;;;;5044206;28;20025;-46
2023/10/15 11:36:43;;;;;;;7.30;4.32;;;;;;;;;;5044365;28;20025;-40
2023/10/15 11:39:18;;;;;;;6.53;3.95;;;;;;;;;;5044341;28;20088;-44
2023/10/15 11:41:52;;;;;;;4.45;3.60;;;;;;;;;;5044256;28;20021;-39
2023/10/15 11:44:26;;;;;;;9.98;4.40;;;;;;;;;;5044201;28;20033;-44
2023/10/15 11:46:54;;;;;;;6.15;3.90;;;;;;;;;;5044092;28;20017;-38
2023/10/15 11:49:24;;;;;;;5.90;4.07;;;;;;;;;;5044109;28;20037;-41
2023/10/15 11:52:05;;;;;;;6.85;3.63;;;;;;;;;;5043716;28;20040;-35
2023/10/15 11:54:32;;;;;;;7.25;3.67;;;;;;;;;;5043026;28;20097;-37
2023/10/15 11:57:00;;;;;;;8.40;3.60;;;;;;;;;;5044101;28;20040;-39
2023/10/15 11:59:27;;;;;;;7.40;3.90;;;;;;;;;;5043933;28;20025;-38
2023/10/15 12:01:54;;;;;;;8.07;4.10;;;;;;;;;;5043961;28;20043;-42
2023/10/15 12:04:25;;;;;;;6.07;3.83;;;;;;;;;;5043958;28;20098;-51
2023/10/15 12:06:53;;;;;;;8.95;3.85;;;;;;;;;;5043806;28;20201;-36
2023/10/15 12:09:26;;;;;;;9.63;3.70;;;;;;;;;;5044037;28;20021;-41
2023/10/15 12:11:53;;;;;;;10.63;4.13;;;;;;;;;;5043689;28;20025;-37
2023/10/15 12:14:20;;;;;;;7.50;3.95;;;;;;;;;;5043921;28;20318;-46
2023/10/15 12:16:47;;;;;;;7.15;3.97;;;;;;;;;;5043673;28;20033;-48
2023/10/15 12:19:13;;;;;;;7.82;4.40;;;;;;;;;;5043699;28;20037;-35
2023/10/15 12:21:40;;;;;;;8.15;4.07;;;;;;;;;;5043746;28;20139;-37
2023/10/15 12:24:13;;;;;;;4.32;3.80;;;;;;;;;;5044078;28;20038;-44
2023/10/15 12:26:40;;;;;;;6.70;3.72;;;;;;;;;;5043547;28;20334;-41
2023/10/15 12:29:07;;;;;;;8.57;3.70;;;;;;;;;;5043847;28;20046;-45
2023/10/15 12:31:38;;;;;;;7.07;3.85;;;;;;;;;;5043646;28;20029;-46
2023/10/15 12:34:05;;;;;;;7.50;4.30;;;;;;;;;;5043511;28;20187;-37
2023/10/15 12:36:32;;;;;;;11.48;3.80;;;;;;;;;;5043689;28;20262;-36
2023/10/15 12:38:58;;;;;;;8.18;3.67;;;;;;;;;;5043602;28;20040;-46
2023/10/15 12:41:25;;;;;;;6.28;3.75;;;;;;;;;;5043402;28;20033;-41
2023/10/15 12:43:58;;;;;;;7.82;4.10;;;;;;;;;;5043750;28;20084;-46
2023/10/15 12:46:29;;;;;;;12.13;4.50;;;;;;;;;;5043363;28;20147;-41
2023/10/15 12:48:59;;;;;;;11.75;4.15;;;;;;;;;;5043149;28;20175;-46
2023/10/15 12:51:26;;;;;;;7.18;4.30;;;;;;;;;;5043642;28;20313;-44
2023/10/15 12:53:52;;;;;;;8.35;3.90;;;;;;;;;;5043695;28;20313;-40
2023/10/15 12:56:19;;;;;;;7.50;4.30;;;;;;;;;;5043277;28;20041;-39
2023/10/15 12:58:46;;;;;;;6.82;4.03;;;;;;;;;;5043350;28;20029;-45
2023/10/15 13:01:13;;;;;;;6.20;4.10;;;;;;;;;;5043438;28;20324;-39
2023/10/15 13:03:42;;;;;;;8.98;4.20;;;;;;;;;;5045906;28;20045;-43
2023/10/15 13:06:11;;;;;;;5.05;4.47;;;;;;;;;;5047630;28;20037;-45
2023/10/15 13:08:38;;;;;;;8.15;7.00;;;;;;;;;;5047083;28;20021;-47
2023/10/15 13:11:04;;;;;;;8.73;6.20;;;;;;;;;;5047506;28;20022;-42
2023/10/15 13:13:31;;;;;;;7.38;5.82;;;;;;;;;;5046944;28;20029;-43
2023/10/15 13:15:58;;;;;;;8.80;5.75;;;;;;;;;;5046868;28;20021;-41
2023/10/15 13:18:24;;;;;;;7.55;4.93;;;;;;;;;;5046654;28;20021;-51
2023/10/15 13:20:51;;;;;;;10.18;5.55;;;;;;;;;;5047238;28;20041;-41
2023/10/15 13:23:18;;;;;;;9.13;5.60;;;;;;;;;;5046785;28;20248;-42
2023/10/15 13:25:44;;;;;;;8.40;7.18;;;;;;;;;;5047011;28;20055;-48
2023/10/15 13:28:12;;;;;;;12.80;8.80;;;;;;;;;;5046683;28;20029;-39
2023/10/15 13:30:38;;;;;;;11.55;8.07;;;;;;;;;;5046869;28;20033;-48
2023/10/15 13:33:06;;;;;;;12.52;8.73;;;;;;;;;;5046407;28;20085;-47
2023/10/15 13:35:35;;;;;;;10.68;7.18;;;;;;;;;;5046863;28;20123;-44
2023/10/15 13:38:01;;;;;;;10.77;6.65;;;;;;;;;;5046406;28;20191;-44
2023/10/15 13:40:28;;;;;;;9.15;6.47;;;;;;;;;;5046339;28;20222;-39
2023/10/15 13:42:55;;;;;;;10.70;6.45;;;;;;;;;;5046455;28;20033;-40
2023/10/15 13:45:24;;;;;;;10.93;6.75;;;;;;;;;;5046820;28;20083;-43
2023/10/15 13:47:51;;;;;;;10.55;6.28;;;;;;;;;;5046253;28;20063;-52
2023/10/15 13:50:18;;;;;;;16.08;11.57;;;;;;;;;;5046567;28;20056;-49
2023/10/15 13:52:45;;;;;;;14.23;10.93;;;;;;;;;;5046205;28;20010;-48
2023/10/15 13:55:12;;;;;;;15.25;8.85;;;;;;;;;;5046411;28;20025;-41
2023/10/15 13:57:39;;;;;;;15.45;8.30;;;;;;;;;;5046137;28;20036;-46
2023/10/15 14:00:16;;;;;;;11.23;7.40;;;;;;;;;;5046231;28;20029;-46
2023/10/15 14:02:45;;;;;;;10.15;6.90;;;;;;;;;;5045877;28;20253;-44
2023/10/15 14:05:20;;;;;;;11.27;6.90;;;;;;;;;;5046083;28;20040;-51
2023/10/15 14:07:47;;;;;;;7.22;5.82;;;;;;;;;;5045792;28;20017;-38
2023/10/15 14:10:15;;;;;;;9.73;5.43;;;;;;;;;;5046231;28;20033;-44
2023/10/15 14:12:45;;;;;;;8.40;5.07;;;;;;;;;;5045771;28;20248;-50
2023/10/15 14:15:14;;;;;;;7.85;5.22;;;;;;;;;;5046093;28;20302;-48
2023/10/15 14:17:42;;;;;;;8.48;5.00;;;;;;;;;;5045819;28;20033;-45
2023/10/15 14:20:15;;;;;;;8.02;4.97;;;;;;;;;;5046059;28;20091;-47
2023/10/15 14:22:42;;;;;;;5.75;4.72;;;;;;;;;;5045637;28;20033;-43
2023/10/15 14:25:12;;;;;;;6.75;4.97;;;;;;;;;;5045454;28;20322;-37
2023/10/15 14:27:40;;;;;;;7.80;4.75;;;;;;;;;;5045675;28;20190;-40
2023/10/15 14:30:08;;;;;;;7.63;4.50;;;;;;;;;;5045860;28;20083;-36
2023/10/15 14:32:37;;;;;;;8.20;4.35;;;;;;;;;;5045560;28;20132;-45
2023/10/15 14:35:09;;;;;;;8.02;4.63;;;;;;;;;;5045894;28;20067;-37
2023/10/15 14:37:40;;;;;;;8.43;4.57;;;;;;;;;;5045420;28;20025;-40
2023/10/15 14:40:12;;;;;;;7.32;4.90;;;;;;;;;;5045611;28;20065;-37
2023/10/15 14:42:39;;;;;;;6.22;5.10;;;;;;;;;;5045180;28;20318;-42
2023/10/15 14:45:07;;;;;;;9.00;6.60;;;;;;;;;;5045507;28;20333;-34
2023/10/15 14:47:33;;;;;;;13.05;8.75;;;;;;;;;;5045199;28;20092;-41
2023/10/15 14:50:02;;;;;;;12.77;9.75;;;;;;;;;;5045500;28;20056;-39
2023/10/15 14:52:29;;;;;;;10.55;8.52;;;;;;;;;;5045054;28;20317;-37
2023/10/15 14:54:56;;;;;;;12.10;10.07;;;;;;;;;;5045296;28;20052;-38
2023/10/15 14:57:23;;;;;;;15.23;13.60;;;;;;;;;;5044820;28;20027;-46
2023/10/15 14:59:50;;;;;;;13.20;11.40;;;;;;;;;;5045157;28;20029;-40
2023/10/15 15:02:17;;;;;;;11.02;9.63;;;;;;;;;;5044881;28;20071;-51
2023/10/15 15:04:45;;;;;;;10.35;8.88;;;;;;;;;;5044784;28;20140;-48
2023/10/15 15:07:12;;;;;;;9.30;7.72;;;;;;;;;;5044848;28;20071;-45
2023/10/15 15:09:39;;;;;;;11.88;7.65;;;;;;;;;;5043553;28;20033;-42
2023/10/15 15:12:05;;;;;;;8.82;7.90;;;;;;;;;;5044595;28;20022;-45
2023/10/15 15:14:34;;;;;;;10.05;8.48;;;;;;;;;;5045815;28;20313;-37
2023/10/15 15:17:05;;;;;;;11.18;7.13;;;;;;;;;;5048986;28;20037;-41
2023/10/15 15:19:32;;;;;;;8.48;7.13;;;;;;;;;;5049577;28;20079;-43
2023/10/15 15:21:59;;;;;;;9.60;6.63;;;;;;;;;;5055781;28;20095;-37
2023/10/15 15:24:26;;;;;;;7.63;6.07;;;;;;;;;;5052518;28;20126;-39